Terminal Aerodrome Forecast
Issued by NWS Huntsville, AL

Home | Current Version | Previous Version | Text Only | Print | Product List | Glossary On
Versions: 1 2 3 4 5 6 7 8 9 10 11 12 13 14 15 16 17 18 19 20 21 22 23 24 25 26 27 28 29 30 31 32
000
FTUS44 KHUN 011128
TAFHSV
TAF
KHSV 011128Z 0112/0212 15007KT P6SM BKN015 OVC030
     FM011600 14004KT 5SM -DZ BR OVC010
     FM020400 VRB03KT 3SM -RA BR OVC005
     FM020800 35007KT 3SM -RA BR OVC005=

USA.gov is the U.S. government's official web portal to all federal, state and local government web resources and services.